TRNST86 PAMR-PFCB
Flight info
| Callsign | TRNST86 |
|---|---|
| Flight time | N/A |
| Altitude | 9000 |
| Route | HOPER PEPPI |
| Aircraft | C208/L-SDFGR/C |
Departure
| Time | N/A |
|---|---|
| Airport | Merrill Field (PAMR) |
Arrival
| Time | 2026-05-08 00:28 |
|---|---|
| Airport | Chenega Bay Airport (PFCB) |
| Time | Latitude | Longitude | Altitude | Speed | Heading |
|---|---|---|---|---|---|
| 2026-05-08 00:22 | 60.11238 | -147.65830 | 2426 ft | 145 kts | 240° |
| 2026-05-08 00:22 | 60.10790 | -147.67646 | 2365 ft | 146 kts | 244° |
| 2026-05-08 00:23 | 60.10422 | -147.69546 | 2326 ft | 146 kts | 247° |
| 2026-05-08 00:23 | 60.10085 | -147.71424 | 2309 ft | 144 kts | 248° |
| 2026-05-08 00:23 | 60.09758 | -147.73311 | 2308 ft | 143 kts | 248° |
| 2026-05-08 00:23 | 60.09442 | -147.75194 | 2309 ft | 143 kts | 249° |
| 2026-05-08 00:24 | 60.09177 | -147.77109 | 2304 ft | 142 kts | 251° |
| 2026-05-08 00:24 | 60.08937 | -147.79035 | 2310 ft | 143 kts | 253° |
| 2026-05-08 00:24 | 60.08678 | -147.80957 | 2308 ft | 142 kts | 252° |
| 2026-05-08 00:24 | 60.08416 | -147.82864 | 2304 ft | 142 kts | 253° |
| 2026-05-08 00:25 | 60.08158 | -147.84767 | 2302 ft | 141 kts | 253° |
| 2026-05-08 00:25 | 60.07915 | -147.86574 | 2287 ft | 125 kts | 253° |
| 2026-05-08 00:25 | 60.07713 | -147.88138 | 2199 ft | 114 kts | 253° |
| 2026-05-08 00:25 | 60.07521 | -147.89694 | 1944 ft | 116 kts | 255° |
| 2026-05-08 00:26 | 60.07345 | -147.91257 | 1720 ft | 114 kts | 256° |
| 2026-05-08 00:26 | 60.07129 | -147.92734 | 1516 ft | 110 kts | 248° |
| 2026-05-08 00:26 | 60.06877 | -147.94174 | 1296 ft | 110 kts | 248° |
| 2026-05-08 00:26 | 60.06635 | -147.95540 | 1111 ft | 98 kts | 247° |
| 2026-05-08 00:27 | 60.06406 | -147.96810 | 897 ft | 95 kts | 249° |
| 2026-05-08 00:27 | 60.06269 | -147.98102 | 719 ft | 95 kts | 266° |
| 2026-05-08 00:27 | 60.06515 | -147.99227 | 500 ft | 88 kts | 320° |
| 2026-05-08 00:27 | 60.07062 | -147.99431 | 286 ft | 78 kts | 1° |
| 2026-05-08 00:28 | 60.07595 | -147.99451 | 119 ft | 72 kts | 358° |
| 2026-05-08 00:28 | 60.08009 | -147.99486 | 117 ft | 45 kts | 358° |
| 2026-05-08 00:28 | 60.08225 | -147.99503 | 115 ft | 13 kts | 5° |
| 2026-05-08 00:28 | 60.08234 | -147.99505 | 115 ft | 10 kts | 180° |
| 2026-05-08 00:29 | 60.08139 | -147.99503 | 116 ft | 17 kts | 179° |
| 2026-05-08 00:29 | 60.08015 | -147.99532 | 116 ft | 18 kts | 238° |
| 2026-05-08 00:29 | 60.07961 | -147.99669 | 115 ft | 15 kts | 195° |
| 2026-05-08 00:29 | 60.07900 | -147.99732 | 111 ft | 8 kts | 297° |
| 2026-05-08 00:30 | 60.07917 | -147.99733 | 110 ft | 0 kts | 358° |